Time;durP1;ratioP1;P1;durP2;ratioP2;P2;SDS_P1;SDS_P2;PMS_P1;PMS_P2;Temp;Humidity;BMP_temperature;BMP_pressure;BME280_temperature;BME280_humidity;BME280_pressure;Samples;Min_cycle;Max_cycle;Signal;HPM_P1;HPM_P2
2021/11/28 00:01:05;;;;;;;7.85;6.00;;;;;;;3.38;100.00;94330.59;5052447;28;20087;-52
2021/11/28 00:03:35;;;;;;;7.68;5.75;;;;;;;3.27;100.00;94335.06;5048191;28;20068;-54
2021/11/28 00:06:05;;;;;;;7.60;6.20;;;;;;;3.39;100.00;94327.00;5055303;28;20625;-54
2021/11/28 00:08:59;;;;;;;7.38;6.15;;;;;;;3.56;100.00;94326.13;5057931;28;20064;-52
2021/11/28 00:11:30;;;;;;;7.50;5.63;;;;;;;3.96;100.00;94311.66;5048613;28;20079;-55
2021/11/28 00:14:07;;;;;;;6.38;5.55;;;;;;;4.02;100.00;94311.81;5051706;28;20095;-53
2021/11/28 00:16:36;;;;;;;6.82;6.03;;;;;;;4.10;100.00;94298.00;5050715;28;20336;-53
2021/11/28 00:19:06;;;;;;;8.25;5.78;;;;;;;4.37;100.00;94299.56;5051728;28;20075;-51
2021/11/28 00:21:35;;;;;;;8.82;6.15;;;;;;;4.44;100.00;94304.94;5051988;28;20077;-51
2021/11/28 00:24:04;;;;;;;8.55;7.30;;;;;;;4.62;100.00;94300.41;5054150;28;20067;-55
2021/11/28 00:26:34;;;;;;;10.10;7.38;;;;;;;4.51;100.00;94301.53;5056703;28;20072;-58
2021/11/28 00:29:04;;;;;;;8.52;6.80;;;;;;;4.28;100.00;94296.09;5057164;28;20087;-54
2021/11/28 00:31:33;;;;;;;7.82;6.40;;;;;;;4.67;100.00;94298.13;5052153;28;20311;-58
2021/11/28 00:34:01;;;;;;;7.43;5.20;;;;;;;4.87;100.00;94298.63;5053891;28;20091;-53
2021/11/28 00:36:30;;;;;;;4.93;4.43;;;;;;;4.75;100.00;94300.75;5055433;28;20068;-57
2021/11/28 00:38:58;;;;;;;5.25;4.78;;;;;;;4.80;100.00;94297.63;5051756;28;20087;-56
2021/11/28 00:41:26;;;;;;;8.55;6.20;;;;;;;4.81;100.00;94301.06;5050637;28;20099;-54
2021/11/28 00:43:56;;;;;;;7.45;5.43;;;;;;;4.71;100.00;94302.06;5055320;28;20068;-56
2021/11/28 00:46:25;;;;;;;7.17;5.63;;;;;;;4.76;100.00;94304.16;5049730;28;20063;-57
2021/11/28 00:48:53;;;;;;;7.57;5.35;;;;;;;4.63;100.00;94309.84;5053730;28;20064;-55
2021/11/28 00:51:36;;;;;;;6.55;5.15;;;;;;;4.52;100.00;94304.97;5047496;28;20071;-52
2021/11/28 00:54:05;;;;;;;6.10;5.03;;;;;;;4.04;100.00;94296.84;5052232;28;20106;-55
2021/11/28 00:56:33;;;;;;;6.30;5.43;;;;;;;3.90;100.00;94307.06;5056811;28;20079;-56
2021/11/28 00:59:03;;;;;;;8.00;5.28;;;;;;;3.89;100.00;94308.03;5052216;28;20081;-56
2021/11/28 01:01:33;;;;;;;8.90;5.10;;;;;;;3.56;100.00;94308.69;5053896;28;20294;-56
2021/11/28 01:04:02;;;;;;;8.55;5.03;;;;;;;3.56;100.00;94316.50;5045787;28;20490;-53
2021/11/28 01:06:31;;;;;;;7.90;5.25;;;;;;;3.69;100.00;94316.09;5050772;28;20072;-58
2021/11/28 01:09:00;;;;;;;6.47;5.30;;;;;;;3.79;100.00;94321.19;5056564;28;20061;-54
2021/11/28 01:11:28;;;;;;;7.20;5.38;;;;;;;3.85;100.00;94319.75;5051957;28;20064;-51
2021/11/28 01:13:57;;;;;;;7.95;5.35;;;;;;;4.09;100.00;94319.03;5055600;28;20076;-54
2021/11/28 01:16:26;;;;;;;7.70;5.05;;;;;;;4.39;100.00;94315.03;5051969;28;20573;-59
2021/11/28 01:18:55;;;;;;;6.15;5.05;;;;;;;4.56;100.00;94313.28;5052223;28;20574;-52
2021/11/28 01:21:24;;;;;;;6.57;5.25;;;;;;;4.69;100.00;94318.84;5040643;28;20065;-56
2021/11/28 01:23:54;;;;;;;7.93;5.32;;;;;;;4.70;100.00;94318.69;5049051;28;20096;-55
2021/11/28 01:26:24;;;;;;;6.13;5.32;;;;;;;4.52;100.00;94324.03;5056016;28;20080;-55
2021/11/28 01:28:52;;;;;;;7.88;5.10;;;;;;;4.73;100.00;94325.38;5055731;28;20134;-56
2021/11/28 01:31:21;;;;;;;7.05;5.25;;;;;;;4.83;100.00;94328.66;5061305;28;20075;-50
2021/11/28 01:33:51;;;;;;;6.50;5.55;;;;;;;4.74;100.00;94324.38;5060692;28;20056;-51
2021/11/28 01:36:20;;;;;;;;;;;;;;;4.65;100.00;94320.16;5052228;28;20492;-56
2021/11/28 01:38:48;;;;;;;7.28;5.13;;;;;;;4.87;100.00;94316.91;5053716;28;19963;-52
2021/11/28 01:41:17;;;;;;;7.40;5.72;;;;;;;4.51;100.00;94311.97;5056758;28;20064;-57
2021/11/28 01:43:48;;;;;;;7.22;5.80;;;;;;;4.72;100.00;94321.13;5058893;28;20072;-55
2021/11/28 01:46:18;;;;;;;6.15;5.28;;;;;;;4.31;100.00;94328.88;5039313;28;20183;-56
2021/11/28 01:48:47;;;;;;;6.75;5.50;;;;;;;4.45;100.00;94330.88;5056356;28;20079;-58
2021/11/28 01:51:17;;;;;;;7.20;5.75;;;;;;;4.44;100.00;94331.84;5052276;28;20061;-52
2021/11/28 01:53:47;;;;;;;7.00;5.78;;;;;;;4.37;100.00;94341.31;5052023;28;20065;-54
2021/11/28 01:56:16;;;;;;;7.60;5.97;;;;;;;4.64;100.00;94334.97;5058882;28;20087;-57
2021/11/28 01:58:45;;;;;;;7.95;5.80;;;;;;;4.83;100.00;94336.47;5047416;28;20467;-55
2021/11/28 02:01:15;;;;;;;6.57;5.55;;;;;;;4.66;100.00;94334.84;5056217;28;20515;-56
2021/11/28 02:03:45;;;;;;;7.30;5.80;;;;;;;4.47;100.00;94343.75;5040357;28;20664;-59
2021/11/28 02:06:15;;;;;;;7.25;5.90;;;;;;;4.78;100.00;94335.31;5055042;28;21763;-56
2021/11/28 02:08:45;;;;;;;7.05;6.00;;;;;;;4.79;100.00;94329.16;5057171;28;20079;-57
2021/11/28 02:11:14;;;;;;;7.10;6.03;;;;;;;4.54;100.00;94331.69;5061805;28;21626;-54
2021/11/28 02:13:43;;;;;;;7.32;5.95;;;;;;;4.80;100.00;94334.19;5064232;28;20072;-56
2021/11/28 02:16:14;;;;;;;7.82;5.82;;;;;;;4.56;100.00;94334.97;5054982;28;20061;-57
2021/11/28 02:18:43;;;;;;;8.32;5.72;;;;;;;4.45;100.00;94330.88;5035525;28;20076;-57
2021/11/28 02:21:14;;;;;;;6.50;5.82;;;;;;;4.43;100.00;94332.00;5052844;28;20072;-50
2021/11/28 02:23:42;;;;;;;;;;;;;;;4.60;100.00;94335.47;5062346;28;20088;-53
2021/11/28 02:26:14;;;;;;;6.60;5.57;;;;;;;4.41;100.00;94340.00;5061398;28;19970;-51
2021/11/28 02:28:46;;;;;;;6.60;5.55;;;;;;;3.97;100.00;94340.16;5065447;28;20079;-54
2021/11/28 02:31:15;;;;;;;7.93;5.63;;;;;;;4.34;100.00;94319.94;5056040;28;20447;-53
2021/11/28 02:33:44;;;;;;;7.35;5.65;;;;;;;4.36;100.00;94318.78;5054127;28;20064;-53
2021/11/28 02:36:16;;;;;;;7.22;5.65;;;;;;;4.38;100.00;94322.06;5056633;28;20528;-56
2021/11/28 02:38:44;;;;;;;7.53;5.65;;;;;;;4.60;100.00;94314.59;5058344;28;20067;-51
2021/11/28 02:41:13;;;;;;;6.97;5.75;;;;;;;4.43;100.00;94313.75;5059376;28;20552;-57
2021/11/28 02:43:42;;;;;;;6.32;5.38;;;;;;;4.86;100.00;94314.47;5039036;28;20071;-50
2021/11/28 02:46:12;;;;;;;7.40;5.47;;;;;;;4.82;100.00;94303.53;5056063;28;20060;-55
2021/11/28 02:48:41;;;;;;;8.55;5.53;;;;;;;4.67;100.00;94303.34;5033694;28;20534;-52
2021/11/28 02:51:10;;;;;;;5.85;5.00;;;;;;;4.70;100.00;94299.59;5051599;28;20099;-57
2021/11/28 02:53:40;;;;;;;6.20;5.00;;;;;;;4.56;100.00;94310.66;5051847;28;20045;-55
2021/11/28 02:56:08;;;;;;;8.45;4.82;;;;;;;4.40;100.00;94309.66;5055620;28;20088;-57
2021/11/28 02:58:38;;;;;;;6.03;4.78;;;;;;;4.18;100.00;94305.84;5056033;28;20549;-56
2021/11/28 03:01:11;;;;;;;7.03;4.88;;;;;;;4.15;100.00;94321.81;5052113;28;20063;-57
2021/11/28 03:03:40;;;;;;;8.55;5.97;;;;;;;3.68;100.00;94324.91;5052913;28;20136;-58
2021/11/28 03:06:08;;;;;;;7.78;5.45;;;;;;;4.00;100.00;94311.19;5051941;28;20068;-56
2021/11/28 03:08:38;;;;;;;7.88;5.25;;;;;;;3.89;100.00;94298.44;5052780;28;20088;-55
2021/11/28 03:11:08;;;;;;;6.57;5.43;;;;;;;4.05;100.00;94300.25;5054839;28;20072;-57
2021/11/28 03:13:39;;;;;;;5.57;4.97;;;;;;;4.15;100.00;94290.53;5051351;28;20143;-56
2021/11/28 03:16:09;;;;;;;7.38;5.03;;;;;;;4.22;100.00;94291.50;5038704;28;20064;-56
2021/11/28 03:18:39;;;;;;;6.63;5.88;;;;;;;4.22;100.00;94288.09;5042155;28;20060;-56
2021/11/28 03:21:10;;;;;;;8.27;5.72;;;;;;;4.66;100.00;94280.81;5055176;28;20358;-55
2021/11/28 03:23:40;;;;;;;6.15;5.25;;;;;;;4.62;100.00;94281.31;5061217;28;20065;-54
2021/11/28 03:26:13;;;;;;;5.57;4.97;;;;;;;4.79;100.00;94282.97;5056675;28;20071;-54
2021/11/28 03:28:46;;;;;;;6.70;4.85;;;;;;;4.72;100.00;94281.97;5059250;28;20074;-53
2021/11/28 03:31:15;;;;;;;6.43;4.70;;;;;;;4.91;100.00;94275.59;5053911;28;20056;-54
2021/11/28 03:33:43;;;;;;;5.97;4.38;;;;;;;4.86;100.00;94276.13;5049294;28;20479;-54
2021/11/28 03:36:14;;;;;;;5.20;4.30;;;;;;;4.62;100.00;94270.88;5049776;28;20079;-55
2021/11/28 03:38:43;;;;;;;5.30;4.20;;;;;;;4.75;100.00;94276.44;5060011;28;20064;-55
2021/11/28 03:41:13;;;;;;;5.47;4.10;;;;;;;4.84;100.00;94278.06;5052812;28;20080;-60
2021/11/28 03:43:42;;;;;;;5.07;4.30;;;;;;;5.00;100.00;94272.03;5056450;28;20075;-57
2021/11/28 03:46:11;;;;;;;4.75;4.32;;;;;;;4.78;100.00;94270.88;5031364;28;20071;-58
2021/11/28 03:48:39;;;;;;;4.65;3.95;;;;;;;4.79;100.00;94269.91;5051622;28;20640;-54
2021/11/28 03:51:08;;;;;;;4.93;3.70;;;;;;;5.14;100.00;94258.28;5058655;28;20056;-52
2021/11/28 03:53:37;;;;;;;5.40;4.00;;;;;;;5.17;100.00;94265.00;5055535;28;21878;-50
2021/11/28 03:56:07;;;;;;;5.80;4.07;;;;;;;5.11;100.00;94252.59;5043735;28;20075;-57
2021/11/28 03:58:39;;;;;;;4.43;3.80;;;;;;;5.18;100.00;94269.22;5055643;28;20072;-57
2021/11/28 04:01:09;;;;;;;6.65;4.25;;;;;;;5.28;100.00;94276.88;5057332;28;20072;-57
2021/11/28 04:03:38;;;;;;;4.70;3.90;;;;;;;5.18;100.00;94269.22;5057255;28;20077;-59
2021/11/28 04:06:08;;;;;;;6.78;4.00;;;;;;;5.28;100.00;94255.97;5053503;28;20064;-54
2021/11/28 04:08:37;;;;;;;;;;;;;;;5.09;100.00;94254.53;5052744;28;20084;-52
2021/11/28 04:11:05;;;;;;;5.00;3.85;;;;;;;5.10;100.00;94269.25;5054471;28;19956;-57
2021/11/28 04:13:34;;;;;;;4.80;3.58;;;;;;;5.19;100.00;94258.59;5046188;28;21519;-55
2021/11/28 04:16:04;;;;;;;4.63;3.75;;;;;;;4.88;100.00;94271.53;5056994;28;20659;-54
2021/11/28 04:18:33;;;;;;;4.30;3.90;;;;;;;4.89;100.00;94262.72;5057785;28;20073;-54
2021/11/28 04:21:01;;;;;;;4.28;3.88;;;;;;;4.72;100.00;94261.91;5058280;28;20063;-55
2021/11/28 04:23:30;;;;;;;7.05;3.97;;;;;;;4.58;100.00;94259.13;5052624;28;20064;-54
2021/11/28 04:25:58;;;;;;;4.65;3.70;;;;;;;4.88;100.00;94255.03;5057177;28;20073;-50
2021/11/28 04:28:28;;;;;;;5.43;3.95;;;;;;;5.08;100.00;94250.31;5050821;28;20080;-55
2021/11/28 04:30:56;;;;;;;4.65;3.63;;;;;;;5.09;100.00;94252.72;5053716;28;20065;-52
2021/11/28 04:33:26;;;;;;;5.25;4.13;;;;;;;4.86;100.00;94255.22;5054144;28;20167;-55
2021/11/28 04:35:55;;;;;;;5.50;4.00;;;;;;;4.89;100.00;94256.69;5051009;28;20061;-55
2021/11/28 04:38:23;;;;;;;5.63;4.40;;;;;;;4.90;100.00;94260.94;5050087;28;20091;-56
2021/11/28 04:40:52;;;;;;;4.40;4.00;;;;;;;4.95;100.00;94256.81;5053924;28;20069;-58
2021/11/28 04:43:20;;;;;;;4.13;3.72;;;;;;;5.20;100.00;94254.22;5053641;28;20059;-57
2021/11/28 04:45:48;;;;;;;4.88;4.00;;;;;;;5.35;100.00;94255.16;5052120;28;20450;-51
2021/11/28 04:48:17;;;;;;;5.53;3.90;;;;;;;5.31;100.00;94255.66;5043387;28;20530;-57
2021/11/28 04:50:47;;;;;;;4.97;4.00;;;;;;;5.30;100.00;94265.28;5053994;28;20056;-57
2021/11/28 04:53:15;;;;;;;4.32;3.92;;;;;;;5.38;100.00;94261.84;5053369;28;20467;-54
2021/11/28 04:55:44;;;;;;;4.47;4.07;;;;;;;5.23;100.00;94269.56;5055263;28;20087;-56
2021/11/28 04:58:12;;;;;;;4.82;4.15;;;;;;;5.25;100.00;94262.34;5056100;28;20068;-56
2021/11/28 05:00:41;;;;;;;4.38;3.97;;;;;;;5.18;100.00;94267.41;5054255;28;20064;-56
2021/11/28 05:03:09;;;;;;;4.40;4.00;;;;;;;5.08;100.00;94269.41;5058077;28;20411;-60
2021/11/28 05:05:38;;;;;;;4.28;3.88;;;;;;;5.21;100.00;94271.50;5053551;28;20069;-53
2021/11/28 05:08:08;;;;;;;4.43;3.90;;;;;;;4.82;100.00;94272.19;5055732;28;20715;-57
2021/11/28 05:10:36;;;;;;;4.80;3.78;;;;;;;4.94;100.00;94270.88;5055819;28;20526;-56
2021/11/28 05:13:05;;;;;;;4.68;4.10;;;;;;;5.15;100.00;94277.38;5062522;28;20506;-56
2021/11/28 05:15:34;;;;;;;5.30;4.10;;;;;;;5.10;100.00;94274.47;5053748;28;20475;-56
2021/11/28 05:18:02;;;;;;;5.07;4.00;;;;;;;4.89;100.00;94278.41;5056118;28;20534;-52
2021/11/28 05:20:31;;;;;;;5.05;4.20;;;;;;;4.62;100.00;94276.09;5060153;28;20080;-55
2021/11/28 05:22:59;;;;;;;6.45;4.00;;;;;;;4.62;100.00;94282.13;5058346;28;20448;-55
2021/11/28 05:25:29;;;;;;;4.57;4.00;;;;;;;4.84;100.00;94282.47;5057699;28;20043;-55
2021/11/28 05:27:58;;;;;;;4.38;3.97;;;;;;;4.95;100.00;94275.09;5056921;28;20072;-56
2021/11/28 05:30:26;;;;;;;4.68;4.07;;;;;;;4.97;100.00;94270.53;5058532;28;20110;-60
2021/11/28 05:32:55;;;;;;;5.70;4.28;;;;;;;5.01;100.00;94273.66;5049993;28;20079;-56
2021/11/28 05:35:23;;;;;;;4.80;4.03;;;;;;;4.91;100.00;94280.84;5058128;28;20083;-55
2021/11/28 05:37:52;;;;;;;6.00;4.18;;;;;;;5.00;100.00;94278.06;5060478;28;20088;-58
2021/11/28 05:40:20;;;;;;;6.75;3.92;;;;;;;5.04;100.00;94282.97;5054576;28;20072;-57
2021/11/28 05:42:52;;;;;;;4.75;4.20;;;;;;;5.29;100.00;94281.13;5053161;28;20087;-57
2021/11/28 05:45:22;;;;;;;6.80;4.13;;;;;;;4.82;100.00;94282.66;5050272;28;20576;-59
2021/11/28 05:47:51;;;;;;;5.35;4.25;;;;;;;4.85;100.00;94286.69;5054720;28;20060;-54
2021/11/28 05:50:22;;;;;;;5.80;4.32;;;;;;;4.84;100.00;94293.72;5060168;28;20080;-56
2021/11/28 05:52:51;;;;;;;7.90;4.32;;;;;;;4.46;100.00;94292.53;5055283;28;20072;-55
2021/11/28 05:55:20;;;;;;;5.03;4.32;;;;;;;4.64;100.00;94292.41;5053498;28;20412;-57
2021/11/28 05:57:51;;;;;;;5.60;4.40;;;;;;;4.98;100.00;94294.88;5052558;28;20052;-52
2021/11/28 06:00:26;;;;;;;4.50;4.10;;;;;;;5.00;100.00;94293.72;5053954;28;20550;-57
2021/11/28 06:02:55;;;;;;;4.60;3.93;;;;;;;4.66;100.00;94295.69;5054777;28;20069;-58
2021/11/28 06:05:24;;;;;;;6.82;4.50;;;;;;;4.48;100.00;94299.25;5050894;28;20474;-52
2021/11/28 06:07:52;;;;;;;5.13;4.30;;;;;;;4.19;100.00;94302.25;5057233;28;20084;-55
2021/11/28 06:10:21;;;;;;;6.43;4.40;;;;;;;4.24;100.00;94297.41;5053445;28;20088;-56
2021/11/28 06:12:51;;;;;;;4.70;4.28;;;;;;;4.15;100.00;94300.13;5053087;28;20444;-53
2021/11/28 06:15:19;;;;;;;5.37;4.43;;;;;;;4.22;100.00;94301.13;5053115;28;20066;-57
2021/11/28 06:17:47;;;;;;;7.50;4.25;;;;;;;4.18;100.00;94303.25;5054537;28;20510;-54
2021/11/28 06:20:16;;;;;;;3.95;3.65;;;;;;;4.22;100.00;94301.94;5055144;28;20072;-57
2021/11/28 06:22:44;;;;;;;6.75;4.20;;;;;;;3.77;100.00;94299.66;5052021;28;20087;-57
2021/11/28 06:25:13;;;;;;;5.07;4.53;;;;;;;3.95;100.00;94297.78;5055386;28;20068;-55
2021/11/28 06:28:03;;;;;;;6.35;3.55;;;;;;;4.10;100.00;94302.41;5054808;28;20071;-58
2021/11/28 06:30:31;;;;;;;4.18;3.60;;;;;;;3.87;100.00;94307.38;5056995;28;20522;-53
2021/11/28 06:33:00;;;;;;;4.15;3.75;;;;;;;3.90;100.00;94304.47;5055146;28;20060;-57
2021/11/28 06:35:29;;;;;;;4.13;3.72;;;;;;;3.76;100.00;94309.28;5056017;28;20084;-57
2021/11/28 06:37:57;;;;;;;4.80;3.90;;;;;;;3.83;100.00;94311.28;5057010;28;20103;-58
2021/11/28 06:40:26;;;;;;;4.50;4.10;;;;;;;3.63;100.00;94306.28;5053121;28;20061;-57
2021/11/28 06:42:54;;;;;;;6.57;3.90;;;;;;;3.52;100.00;94309.97;5054134;28;20075;-61
2021/11/28 06:45:24;;;;;;;4.80;3.95;;;;;;;3.45;100.00;94318.56;5055615;28;20494;-60
2021/11/28 06:47:53;;;;;;;4.63;4.22;;;;;;;3.73;100.00;94316.59;5056078;28;20078;-59
2021/11/28 06:50:21;;;;;;;4.78;4.10;;;;;;;3.80;100.00;94312.41;5059455;28;20075;-57
2021/11/28 06:52:50;;;;;;;4.50;4.10;;;;;;;3.79;100.00;94314.19;5057598;28;20076;-55
2021/11/28 06:55:18;;;;;;;4.38;3.97;;;;;;;3.81;100.00;94317.44;5054994;28;20118;-56
2021/11/28 06:57:47;;;;;;;5.00;4.20;;;;;;;3.96;100.00;94314.25;5057412;28;20119;-57
2021/11/28 07:00:18;;;;;;;5.43;4.40;;;;;;;3.96;100.00;94320.28;5052033;28;20087;-57
2021/11/28 07:02:48;;;;;;;5.85;4.32;;;;;;;3.94;100.00;94319.63;5051563;28;20051;-55
2021/11/28 07:05:17;;;;;;;6.32;4.30;;;;;;;3.96;100.00;94316.88;5053252;28;20072;-54
2021/11/28 07:07:45;;;;;;;5.93;4.20;;;;;;;4.08;100.00;94320.00;5059857;28;20068;-59
2021/11/28 07:10:14;;;;;;;5.82;4.40;;;;;;;3.93;100.00;94319.78;5054320;28;20060;-59
2021/11/28 07:12:43;;;;;;;4.75;4.15;;;;;;;3.93;100.00;94322.41;5050328;28;20426;-54
2021/11/28 07:15:13;;;;;;;5.50;4.50;;;;;;;3.84;100.00;94336.34;5054058;28;20069;-57
2021/11/28 07:17:41;;;;;;;5.57;4.20;;;;;;;3.60;100.00;94334.44;5049762;28;20076;-59
2021/11/28 07:20:12;;;;;;;4.95;4.28;;;;;;;3.61;100.00;94334.28;5050386;28;20077;-57
2021/11/28 07:22:40;;;;;;;4.95;4.10;;;;;;;3.72;100.00;94333.22;5063617;28;20080;-52
2021/11/28 07:25:09;;;;;;;4.78;4.25;;;;;;;3.83;100.00;94338.16;5051810;28;20064;-60
2021/11/28 07:27:38;;;;;;;5.45;3.83;;;;;;;3.81;100.00;94342.69;5058335;28;20588;-56
2021/11/28 07:30:07;;;;;;;4.45;4.00;;;;;;;3.89;100.00;94336.69;5053665;28;20650;-56
2021/11/28 07:32:36;;;;;;;4.60;4.20;;;;;;;3.93;100.00;94332.81;5052941;28;20068;-58
2021/11/28 07:35:05;;;;;;;4.40;4.00;;;;;;;3.71;100.00;94332.38;5059209;28;20060;-57
2021/11/28 07:37:35;;;;;;;4.72;4.32;;;;;;;3.85;100.00;94328.38;5051039;28;20087;-59
2021/11/28 07:40:05;;;;;;;4.45;4.03;;;;;;;3.66;100.00;94331.22;5053275;28;20694;-55
2021/11/28 07:42:33;;;;;;;5.57;3.88;;;;;;;3.59;100.00;94341.44;5054020;28;20037;-51
2021/11/28 07:45:02;;;;;;;5.93;4.38;;;;;;;3.41;100.00;94348.50;5058775;28;20055;-58
2021/11/28 07:47:30;;;;;;;7.45;4.57;;;;;;;3.94;100.00;94344.88;5056841;28;20068;-59
2021/11/28 07:49:58;;;;;;;7.10;4.40;;;;;;;3.83;100.00;94352.97;5057821;28;20084;-54
2021/11/28 07:52:27;;;;;;;21.65;13.55;;;;;;;3.70;100.00;94337.75;5053454;28;20068;-57
2021/11/28 07:54:57;;;;;;;5.50;4.47;;;;;;;4.09;100.00;94338.09;5049032;28;20679;-56
2021/11/28 07:57:25;;;;;;;4.25;3.70;;;;;;;3.87;100.00;94328.22;5054461;28;20064;-54
2021/11/28 07:59:53;;;;;;;4.88;3.78;;;;;;;3.80;100.00;94338.47;5055337;28;20495;-55
2021/11/28 08:02:22;;;;;;;5.05;3.70;;;;;;;3.76;100.00;94334.53;5053252;28;20103;-59
2021/11/28 08:04:51;;;;;;;4.60;3.60;;;;;;;4.08;100.00;94339.06;5060784;28;20075;-56
2021/11/28 08:07:19;;;;;;;4.00;3.60;;;;;;;3.97;100.00;94340.16;5055455;28;20064;-55
2021/11/28 08:09:48;;;;;;;5.47;3.60;;;;;;;3.93;100.00;94332.81;5056113;28;20072;-55
2021/11/28 08:12:18;;;;;;;4.35;3.45;;;;;;;3.82;100.00;94344.34;5052827;28;20075;-56
2021/11/28 08:14:47;;;;;;;6.43;4.00;;;;;;;4.05;100.00;94348.00;5050486;28;20778;-55
2021/11/28 08:17:15;;;;;;;3.70;3.40;;;;;;;4.10;100.00;94344.16;5058013;28;20069;-55
2021/11/28 08:19:44;;;;;;;3.30;3.00;;;;;;;4.20;100.00;94344.84;5057039;28;20091;-56
2021/11/28 08:22:12;;;;;;;4.78;3.30;;;;;;;4.35;100.00;94339.81;5056078;28;20072;-56
2021/11/28 08:24:40;;;;;;;3.60;3.30;;;;;;;4.05;100.00;94350.63;5052730;28;20091;-51
2021/11/28 08:27:09;;;;;;;5.43;3.60;;;;;;;4.13;100.00;94343.81;5054751;28;20076;-54
2021/11/28 08:29:40;;;;;;;4.00;3.35;;;;;;;4.10;100.00;94351.97;5058288;28;20064;-55
2021/11/28 08:32:10;;;;;;;4.38;3.55;;;;;;;4.24;100.00;94340.94;5054693;28;20088;-51
2021/11/28 08:34:39;;;;;;;4.30;3.17;;;;;;;4.40;100.00;94340.16;5039506;28;20455;-54
2021/11/28 08:37:08;;;;;;;4.28;3.00;;;;;;;4.30;100.00;94345.50;5052524;28;20064;-51
2021/11/28 08:39:36;;;;;;;5.95;3.25;;;;;;;4.98;100.00;94344.47;5060114;28;20079;-55
2021/11/28 08:42:07;;;;;;;3.72;3.00;;;;;;;4.87;100.00;94343.00;5058804;28;20061;-58
2021/11/28 08:44:36;;;;;;;3.38;3.08;;;;;;;4.98;100.00;94341.88;5052381;28;20083;-60
2021/11/28 08:47:06;;;;;;;5.30;2.92;;;;;;;5.27;100.00;94336.16;5059127;28;20081;-52
2021/11/28 08:49:35;;;;;;;2.97;2.70;;;;;;;5.09;100.00;94340.72;5056036;28;21348;-57
2021/11/28 08:52:03;;;;;;;3.33;3.00;;;;;;;4.97;100.00;94348.09;5061320;28;20068;-58
2021/11/28 08:54:33;;;;;;;3.03;2.80;;;;;;;5.40;100.00;94349.56;5057843;28;20080;-58
2021/11/28 08:57:01;;;;;;;5.40;2.97;;;;;;;5.84;100.00;94351.75;5056708;28;20111;-57
2021/11/28 08:59:30;;;;;;;3.45;2.80;;;;;;;5.70;100.00;94357.66;5062411;28;20063;-54
2021/11/28 09:01:58;;;;;;;4.25;2.70;;;;;;;5.27;100.00;94358.88;5053927;28;20087;-54
2021/11/28 09:04:29;;;;;;;5.57;2.47;;;;;;;5.23;100.00;94366.22;5050668;28;20079;-58
2021/11/28 09:06:57;;;;;;;4.72;3.55;;;;;;;5.59;100.00;94366.69;5062099;28;20711;-54
2021/11/28 09:09:26;;;;;;;4.68;2.63;;;;;;;5.18;100.00;94371.91;5058743;28;20071;-60
2021/11/28 09:11:54;;;;;;;7.53;2.60;;;;;;;5.23;100.00;94382.72;5063079;28;20076;-55
2021/11/28 09:14:23;;;;;;;2.90;2.50;;;;;;;5.52;100.00;94367.50;5056719;28;20063;-59
2021/11/28 09:16:51;;;;;;;2.50;2.30;;;;;;;5.34;100.00;94370.31;5058904;28;20099;-51
2021/11/28 09:19:22;;;;;;;2.83;2.47;;;;;;;5.19;100.00;94373.53;5057042;28;20064;-58
2021/11/28 09:21:54;;;;;;;2.40;2.15;;;;;;;5.67;100.00;94368.44;5057249;28;20079;-58
2021/11/28 09:24:37;;;;;;;3.75;2.60;;;;;;;5.90;100.00;94365.97;5058166;28;20488;-59
2021/11/28 09:27:08;;;;;;;3.13;2.28;;;;;;;5.88;100.00;94367.91;5058736;28;20065;-55
2021/11/28 09:29:38;;;;;;;2.53;2.30;;;;;;;5.51;100.00;94365.88;5057607;28;20061;-53
2021/11/28 09:32:07;;;;;;;2.20;2.10;;;;;;;6.21;100.00;94367.88;5057093;28;20087;-59
2021/11/28 09:34:36;;;;;;;3.80;2.13;;;;;;;6.32;100.00;94357.00;5058018;28;20088;-55
2021/11/28 09:37:10;;;;;;;2.30;2.00;;;;;;;5.90;100.00;94351.09;5057298;28;20108;-59
2021/11/28 09:39:42;;;;;;;2.88;2.30;;;;;;;6.28;100.00;94353.91;5060797;28;20455;-58
2021/11/28 09:42:13;;;;;;;5.15;2.75;;;;;;;6.25;100.00;94349.03;5042114;28;20052;-55
2021/11/28 09:44:42;;;;;;;2.88;2.10;;;;;;;5.88;100.00;94353.06;5038360;28;20171;-55
2021/11/28 09:47:11;;;;;;;3.50;2.22;;;;;;;5.90;100.00;94351.09;5057119;28;20084;-61
2021/11/28 09:49:42;;;;;;;2.53;2.05;;;;;;;5.80;100.00;94349.63;5062409;28;20091;-57
2021/11/28 09:52:15;;;;;;;4.68;2.30;;;;;;;5.61;100.00;94353.41;5056291;28;20454;-57
2021/11/28 09:54:45;;;;;;;2.67;2.25;;;;;;;5.84;100.00;94341.28;5064858;28;20071;-57
2021/11/28 09:57:15;;;;;;;2.67;2.20;;;;;;;6.17;100.00;94344.66;5059796;28;20083;-51
2021/11/28 09:59:44;;;;;;;4.00;2.40;;;;;;;5.91;100.00;94342.25;5064099;28;20079;-54
2021/11/28 10:02:17;;;;;;;2.92;2.50;;;;;;;5.86;100.00;94339.31;5060607;28;20098;-54
2021/11/28 10:04:46;;;;;;;4.53;2.83;;;;;;;6.26;100.00;94345.41;5063387;28;20093;-51
2021/11/28 10:07:16;;;;;;;4.90;2.63;;;;;;;6.06;100.00;94338.97;5062583;28;20111;-59
2021/11/28 10:09:45;;;;;;;4.03;2.60;;;;;;;5.85;100.00;94340.31;5061352;28;20067;-54
2021/11/28 10:12:22;;;;;;;2.80;2.40;;;;;;;5.60;100.00;94341.34;5063433;28;20079;-56
2021/11/28 10:14:54;;;;;;;3.38;2.30;;;;;;;5.92;100.00;94345.69;5063597;28;20514;-56
2021/11/28 10:17:25;;;;;;;3.22;2.33;;;;;;;5.76;100.00;94349.16;5058641;28;20083;-55
2021/11/28 10:19:54;;;;;;;3.30;2.50;;;;;;;5.41;100.00;94334.69;5055196;28;20073;-56
2021/11/28 10:22:24;;;;;;;3.05;2.30;;;;;;;5.62;100.00;94339.38;5056616;28;20068;-55
2021/11/28 10:24:59;;;;;;;4.00;2.17;;;;;;;5.09;100.00;94340.72;5053823;28;20561;-52
2021/11/28 10:27:40;;;;;;;3.55;2.10;;;;;;;4.99;100.00;94351.38;5052800;28;20079;-55
2021/11/28 10:30:11;;;;;;;2.20;2.10;;;;;;;4.90;100.00;94347.91;5049867;28;20077;-60
2021/11/28 10:32:50;;;;;;;2.78;2.55;;;;;;;4.72;100.00;94349.84;5051741;28;20064;-55
2021/11/28 10:35:20;;;;;;;2.97;2.13;;;;;;;4.88;100.00;94347.25;5054251;28;20090;-59
2021/11/28 10:37:53;;;;;;;2.67;2.20;;;;;;;4.94;100.00;94343.19;5054084;28;20080;-57
2021/11/28 10:40:23;;;;;;;3.88;2.30;;;;;;;5.00;100.00;94340.75;5050517;28;20470;-55
2021/11/28 10:43:06;;;;;;;;;;;;;;;5.50;100.00;94332.88;5050002;28;20602;-57
2021/11/28 10:45:37;;;;;;;3.10;2.30;;;;;;;5.57;100.00;94331.22;5053592;28;19967;-59
2021/11/28 10:48:08;;;;;;;2.88;1.90;;;;;;;5.24;100.00;94326.03;5060544;28;20056;-59
2021/11/28 10:50:39;;;;;;;3.25;2.28;;;;;;;5.49;100.00;94332.06;5055319;28;20073;-57
2021/11/28 10:53:10;;;;;;;2.60;2.40;;;;;;;5.38;100.00;94322.75;5058234;28;20708;-58
2021/11/28 10:55:42;;;;;;;3.63;2.50;;;;;;;5.36;100.00;94329.13;5065924;28;20088;-57
2021/11/28 10:58:12;;;;;;;2.85;2.33;;;;;;;5.87;100.00;94324.44;5057044;28;20056;-57
2021/11/28 11:00:42;;;;;;;3.30;2.40;;;;;;;5.80;100.00;94323.50;5054694;28;20114;-59
2021/11/28 11:03:19;;;;;;;3.45;2.50;;;;;;;5.88;100.00;94319.06;5057277;28;20075;-60
2021/11/28 11:05:50;;;;;;;3.08;2.30;;;;;;;6.30;100.00;94315.31;5058339;28;20518;-57
2021/11/28 11:08:25;;;;;;;3.45;2.10;;;;;;;7.06;100.00;94310.25;5057697;28;20115;-59
2021/11/28 11:11:06;;;;;;;4.50;2.22;;;;;;;7.31;100.00;94313.47;5063075;28;20079;-54
2021/11/28 11:13:53;;;;;;;5.78;2.70;;;;;;;6.76;100.00;94310.13;5058438;28;20099;-57
2021/11/28 11:16:35;;;;;;;2.40;2.20;;;;;;;6.49;100.00;94308.03;5057464;28;20064;-57
2021/11/28 11:19:27;;;;;;;2.95;2.25;;;;;;;6.04;100.00;94312.16;5058299;28;20060;-57
2021/11/28 11:22:06;;;;;;;5.82;2.70;;;;;;;5.95;100.00;94311.34;5059042;28;20079;-59
2021/11/28 11:24:40;;;;;;;3.13;2.50;;;;;;;5.86;100.00;94305.31;5054371;28;20080;-59
2021/11/28 11:27:11;;;;;;;2.92;2.40;;;;;;;5.77;100.00;94318.59;5057627;28;20078;-60
2021/11/28 11:29:48;;;;;;;4.47;2.75;;;;;;;5.77;100.00;94308.94;5057967;28;20055;-59
2021/11/28 11:32:17;;;;;;;2.97;2.67;;;;;;;5.39;100.00;94323.56;5053158;28;20530;-52
2021/11/28 11:34:51;;;;;;;3.45;2.60;;;;;;;4.91;100.00;94323.41;5056999;28;20122;-60
2021/11/28 11:37:21;;;;;;;3.30;3.00;;;;;;;5.28;100.00;94324.72;5055894;28;20072;-60
2021/11/28 11:39:53;;;;;;;4.93;2.90;;;;;;;5.03;100.00;94323.13;5055227;28;20052;-53
2021/11/28 11:42:21;;;;;;;;;;;;;;;5.14;100.00;94318.38;5062597;28;20522;-59
2021/11/28 11:44:50;;;;;;;3.63;3.10;;;;;;;5.41;100.00;94322.44;5058287;28;19966;-59
2021/11/28 11:47:20;;;;;;;3.40;3.05;;;;;;;5.39;100.00;94319.16;5066054;28;20142;-60